createdAt,value
2022-08-20T00:00:16.563Z,1.48
2022-08-20T00:02:45.135Z,1.60
2022-08-20T00:05:11.825Z,1.40
2022-08-20T00:07:38.397Z,1.40
2022-08-20T00:10:06.826Z,1.40
2022-08-20T00:12:34.040Z,1.55
2022-08-20T00:15:00.538Z,1.83
2022-08-20T00:17:27.000Z,1.40
2022-08-20T00:19:53.422Z,1.30
2022-08-20T00:22:19.810Z,1.55
2022-08-20T00:24:46.193Z,2.17
2022-08-20T00:27:12.523Z,1.17
2022-08-20T00:29:38.883Z,1.30
2022-08-20T00:32:05.257Z,1.63
2022-08-20T00:34:31.609Z,1.40
2022-08-20T00:36:57.967Z,1.52
2022-08-20T00:39:24.305Z,1.40
2022-08-20T00:41:51.935Z,1.17
2022-08-20T00:44:21.877Z,1.50
2022-08-20T00:46:49.189Z,1.55
2022-08-20T00:49:18.113Z,1.33
2022-08-20T00:51:44.552Z,1.38
2022-08-20T00:54:16.564Z,1.63
2022-08-20T00:56:45.549Z,1.98
2022-08-20T00:59:15.007Z,1.50
2022-08-20T01:01:55.697Z,1.40
2022-08-20T01:04:24.858Z,1.30
2022-08-20T01:06:51.296Z,2.05
2022-08-20T01:09:17.653Z,1.55
2022-08-20T01:12:06.936Z,1.60
2022-08-20T01:14:36.184Z,2.08
2022-08-20T01:17:04.583Z,1.52
2022-08-20T01:19:36.704Z,2.17
2022-08-20T01:22:23.699Z,1.77
2022-08-20T01:24:52.276Z,1.90
2022-08-20T01:27:19.334Z,2.15
2022-08-20T01:29:45.894Z,1.88
2022-08-20T01:32:12.234Z,1.55
2022-08-20T01:34:38.578Z,1.10
2022-08-20T01:37:05.005Z,1.45
2022-08-20T01:39:32.839Z,1.52
2022-08-20T01:42:05.496Z,1.42
2022-08-20T01:44:32.073Z,1.50
2022-08-20T01:47:07.836Z,1.67
2022-08-20T01:49:35.291Z,1.88
2022-08-20T01:52:05.301Z,1.73
2022-08-20T01:54:32.202Z,2.03
2022-08-20T01:57:06.866Z,2.83
2022-08-20T01:59:33.301Z,1.83
2022-08-20T02:02:00.410Z,1.02
2022-08-20T02:04:27.181Z,1.05
2022-08-20T02:06:57.534Z,1.20
2022-08-20T02:09:25.447Z,1.40
2022-08-20T02:11:53.318Z,1.70
2022-08-20T02:14:20.242Z,1.02
2022-08-20T02:16:54.671Z,1.85
2022-08-20T02:19:41.965Z,2.45
2022-08-20T02:22:16.733Z,1.80
2022-08-20T02:24:43.896Z,1.27
2022-08-20T02:27:10.236Z,1.20
2022-08-20T02:29:36.715Z,0.80
2022-08-20T02:32:31.178Z,1.00
2022-08-20T02:34:49.638Z,1.30
2022-08-20T02:37:18.342Z,1.60
2022-08-20T02:39:47.953Z,1.70
2022-08-20T02:42:14.457Z,1.55
2022-08-20T02:44:40.803Z,1.70
2022-08-20T02:47:07.482Z,1.90
2022-08-20T02:49:34.936Z,1.10
2022-08-20T02:52:01.280Z,1.20
2022-08-20T02:54:29.193Z,1.77
2022-08-20T02:56:55.555Z,0.80
2022-08-20T02:59:21.959Z,0.95
2022-08-20T03:01:59.420Z,1.15
2022-08-20T03:04:27.736Z,1.00
2022-08-20T03:06:54.143Z,0.80
2022-08-20T03:09:20.534Z,0.90
2022-08-20T03:11:46.872Z,1.58
2022-08-20T03:14:13.216Z,1.85
2022-08-20T03:16:39.551Z,1.25
2022-08-20T03:19:05.947Z,1.30
2022-08-20T03:21:32.418Z,1.77
2022-08-20T03:23:58.771Z,1.42
2022-08-20T03:26:25.133Z,1.05
2022-08-20T03:28:51.494Z,0.90
2022-08-20T03:31:17.915Z,0.77
2022-08-20T03:33:53.027Z,0.80
2022-08-20T03:36:24.216Z,1.20
2022-08-20T03:38:55.439Z,1.57
2022-08-20T03:41:21.847Z,1.38
2022-08-20T03:43:48.156Z,1.35
2022-08-20T03:46:23.651Z,1.30
2022-08-20T03:49:00.367Z,1.10
2022-08-20T03:51:31.086Z,1.55
2022-08-20T03:53:57.826Z,1.38
2022-08-20T03:56:24.418Z,1.20
2022-08-20T03:58:50.770Z,1.75
2022-08-20T04:01:45.827Z,1.13
2022-08-20T04:04:03.595Z,1.60
2022-08-20T04:06:30.384Z,1.45
2022-08-20T04:08:56.922Z,0.93
2022-08-20T04:11:24.187Z,1.60
2022-08-20T04:13:50.612Z,1.10
2022-08-20T04:16:17.633Z,1.30
2022-08-20T04:19:01.424Z,1.40
2022-08-20T04:21:30.979Z,1.30
2022-08-20T04:23:59.995Z,1.30
2022-08-20T04:26:26.315Z,1.33
2022-08-20T04:28:53.023Z,1.30
2022-08-20T04:31:24.487Z,1.65
2022-08-20T04:33:51.696Z,1.15
2022-08-20T04:36:18.101Z,1.33
2022-08-20T04:38:47.880Z,1.40
2022-08-20T04:41:22.735Z,1.48
2022-08-20T04:43:50.545Z,1.40
2022-08-20T04:46:17.047Z,0.70
2022-08-20T04:48:49.215Z,1.70
2022-08-20T04:51:17.946Z,1.20
2022-08-20T04:53:45.156Z,1.35
2022-08-20T04:56:23.305Z,1.15
2022-08-20T04:58:51.058Z,1.77
2022-08-20T05:01:17.469Z,1.70
2022-08-20T05:03:44.019Z,1.33
2022-08-20T05:06:10.978Z,1.40
2022-08-20T05:08:38.513Z,1.40
2022-08-20T05:11:33.033Z,1.35
2022-08-20T05:13:52.887Z,1.77
2022-08-20T05:16:19.781Z,1.45
2022-08-20T05:18:50.470Z,1.92
2022-08-20T05:21:21.491Z,1.70
2022-08-20T05:23:49.419Z,1.50
2022-08-20T05:26:16.209Z,1.77
2022-08-20T05:28:53.889Z,2.03
2022-08-20T05:31:31.237Z,1.33
2022-08-20T05:33:59.908Z,0.70
2022-08-20T05:36:26.479Z,1.60
2022-08-20T05:38:53.878Z,1.63
2022-08-20T05:41:29.310Z,1.77
2022-08-20T05:43:57.208Z,1.23
2022-08-20T05:46:23.567Z,1.40
2022-08-20T05:48:49.949Z,1.67
2022-08-20T05:51:16.316Z,1.15
2022-08-20T05:53:42.656Z,1.35
2022-08-20T05:56:11.223Z,1.30
2022-08-20T05:58:37.772Z,1.45
2022-08-20T06:01:04.423Z,1.20
2022-08-20T06:03:49.622Z,1.35
2022-08-20T06:06:20.681Z,0.50
2022-08-20T06:09:02.955Z,1.90
2022-08-20T06:11:32.623Z,1.90
2022-08-20T06:14:01.595Z,1.27
2022-08-20T06:16:29.025Z,1.65
2022-08-20T06:18:58.194Z,1.02
2022-08-20T06:21:24.731Z,1.30
2022-08-20T06:23:58.866Z,2.33
2022-08-20T06:26:29.829Z,2.15
2022-08-20T06:28:57.533Z,0.90
2022-08-20T06:31:24.336Z,2.17
2022-08-20T06:33:50.704Z,1.15
2022-08-20T06:36:18.652Z,2.38
2022-08-20T06:38:46.154Z,2.58
2022-08-20T06:41:12.614Z,1.00
2022-08-20T06:43:38.986Z,1.20
2022-08-20T06:46:06.503Z,2.55
2022-08-20T06:48:36.652Z,2.40
2022-08-20T06:51:03.275Z,1.90
2022-08-20T06:53:29.606Z,3.35
2022-08-20T06:55:57.989Z,3.53
2022-08-20T06:58:37.447Z,2.55
2022-08-20T07:01:10.344Z,1.50
2022-08-20T07:03:38.297Z,1.33
2022-08-20T07:06:05.241Z,1.65
2022-08-20T07:08:31.604Z,1.52
2022-08-20T07:10:58.171Z,1.27
2022-08-20T07:13:25.509Z,1.55
2022-08-20T07:15:53.097Z,1.25
2022-08-20T07:18:28.909Z,1.50
2022-08-20T07:20:56.913Z,1.20
2022-08-20T07:23:23.751Z,1.30
2022-08-20T07:25:50.243Z,1.40
2022-08-20T07:28:18.958Z,1.10
2022-08-20T07:31:13.272Z,1.40
2022-08-20T07:33:41.151Z,1.75
2022-08-20T07:36:08.123Z,1.27
2022-08-20T07:38:35.773Z,1.38
2022-08-20T07:41:13.432Z,1.00
2022-08-20T07:43:40.212Z,1.15
2022-08-20T07:46:10.067Z,1.33
2022-08-20T07:48:41.756Z,1.20
2022-08-20T07:51:09.255Z,0.88
2022-08-20T07:53:36.741Z,1.60
2022-08-20T07:56:07.884Z,1.45
2022-08-20T07:58:35.868Z,1.20
2022-08-20T08:01:02.423Z,1.20
2022-08-20T08:03:39.703Z,1.27
2022-08-20T08:06:19.923Z,1.63
2022-08-20T08:08:57.768Z,1.33
2022-08-20T08:11:24.167Z,1.25
2022-08-20T08:13:50.563Z,1.92
2022-08-20T08:16:17.028Z,1.35
2022-08-20T08:18:45.154Z,1.70
2022-08-20T08:21:13.016Z,0.95
2022-08-20T08:23:44.070Z,1.33
2022-08-20T08:26:15.996Z,2.10
2022-08-20T08:28:44.479Z,1.30
2022-08-20T08:31:11.260Z,1.73
2022-08-20T08:33:38.353Z,2.15
2022-08-20T08:36:06.928Z,1.20
2022-08-20T08:38:34.422Z,0.90
2022-08-20T08:41:12.357Z,0.70
2022-08-20T08:43:38.739Z,1.50
2022-08-20T08:46:07.538Z,1.42
2022-08-20T08:48:38.386Z,1.40
2022-08-20T08:51:07.516Z,1.58
2022-08-20T08:53:36.978Z,1.38
2022-08-20T08:56:04.005Z,1.25
2022-08-20T08:58:30.840Z,1.40
2022-08-20T09:00:57.587Z,1.48
2022-08-20T09:03:30.026Z,1.50
2022-08-20T09:06:00.684Z,2.25
2022-08-20T09:08:30.261Z,1.30
2022-08-20T09:11:01.432Z,1.25
2022-08-20T09:13:27.775Z,1.00
2022-08-20T09:15:54.155Z,1.10
2022-08-20T09:18:20.513Z,1.48
2022-08-20T09:20:46.852Z,1.38
2022-08-20T09:23:13.179Z,1.05
2022-08-20T09:25:39.585Z,1.30
2022-08-20T09:28:06.032Z,1.50
2022-08-20T09:30:32.445Z,1.50
2022-08-20T09:32:59.467Z,1.52
2022-08-20T09:35:26.108Z,1.48
2022-08-20T09:37:53.127Z,1.33
2022-08-20T09:40:20.993Z,1.17
2022-08-20T09:42:48.192Z,1.25
2022-08-20T09:45:14.848Z,1.10
2022-08-20T09:47:55.099Z,1.10
2022-08-20T09:50:24.298Z,0.90
2022-08-20T09:52:52.053Z,1.63
2022-08-20T09:55:21.953Z,1.00
2022-08-20T09:57:48.749Z,1.27
2022-08-20T10:00:15.415Z,1.40
2022-08-20T10:02:42.254Z,1.30
2022-08-20T10:05:09.377Z,1.38
2022-08-20T10:07:39.286Z,1.33
2022-08-20T10:10:07.039Z,1.05
2022-08-20T10:12:33.390Z,1.10
2022-08-20T10:14:59.978Z,1.08
2022-08-20T10:17:26.367Z,1.40
2022-08-20T10:19:52.728Z,1.17
2022-08-20T10:22:19.068Z,1.00
2022-08-20T10:24:45.587Z,1.38
2022-08-20T10:27:11.945Z,1.02
2022-08-20T10:29:38.299Z,1.70
2022-08-20T10:32:09.516Z,0.95
2022-08-20T10:34:35.862Z,0.95
2022-08-20T10:37:02.332Z,1.33
2022-08-20T10:39:28.662Z,1.08
2022-08-20T10:41:57.932Z,0.80
2022-08-20T10:44:24.333Z,1.00
2022-08-20T10:46:50.678Z,1.40
2022-08-20T10:49:23.301Z,1.85
2022-08-20T10:51:49.688Z,1.27
2022-08-20T10:54:16.119Z,1.25
2022-08-20T10:56:42.855Z,1.02
2022-08-20T10:59:09.401Z,1.15
2022-08-20T11:01:36.922Z,1.27
2022-08-20T11:04:03.716Z,0.82
2022-08-20T11:06:30.142Z,0.98
2022-08-20T11:08:57.077Z,1.20
2022-08-20T11:11:24.027Z,1.30
2022-08-20T11:13:50.386Z,0.90
2022-08-20T11:16:16.755Z,1.20
2022-08-20T11:18:47.359Z,1.45
2022-08-20T11:21:14.287Z,1.27
2022-08-20T11:23:40.592Z,0.95
2022-08-20T11:26:06.952Z,1.40
2022-08-20T11:28:33.707Z,1.27
2022-08-20T11:31:00.640Z,1.10
2022-08-20T11:33:27.155Z,1.08
2022-08-20T11:35:53.500Z,1.25
2022-08-20T11:38:19.864Z,1.00
2022-08-20T11:40:46.959Z,1.00
2022-08-20T11:43:15.223Z,1.10
2022-08-20T11:45:43.129Z,1.35
2022-08-20T11:48:09.484Z,1.50
2022-08-20T11:50:35.871Z,0.90
2022-08-20T11:53:02.191Z,1.10
2022-08-20T11:55:30.588Z,1.38
2022-08-20T11:57:59.720Z,1.10
2022-08-20T12:00:32.252Z,1.13
2022-08-20T12:03:00.249Z,1.42
2022-08-20T12:05:27.418Z,0.68
2022-08-20T12:07:53.800Z,0.77
2022-08-20T12:10:20.205Z,1.65
2022-08-20T12:12:46.560Z,1.33
2022-08-20T12:15:12.945Z,1.17
2022-08-20T12:17:39.799Z,0.85
2022-08-20T12:20:10.921Z,1.27
2022-08-20T12:22:37.461Z,1.30
2022-08-20T12:25:04.901Z,1.08
2022-08-20T12:27:32.582Z,1.35
2022-08-20T12:29:59.974Z,1.13
2022-08-20T12:32:27.878Z,1.33
2022-08-20T12:34:54.533Z,1.08
2022-08-20T12:37:22.510Z,0.95
2022-08-20T12:39:50.205Z,1.02
2022-08-20T12:42:16.733Z,1.08
2022-08-20T12:44:43.337Z,0.80
2022-08-20T12:47:13.944Z,0.70
2022-08-20T12:49:42.225Z,1.00
2022-08-20T12:52:08.821Z,0.70
2022-08-20T12:54:35.344Z,1.02
2022-08-20T12:57:01.717Z,1.05
2022-08-20T12:59:34.344Z,1.10
2022-08-20T13:02:09.262Z,1.17
2022-08-20T13:04:44.025Z,1.08
2022-08-20T13:07:11.488Z,0.93
2022-08-20T13:09:38.019Z,1.00
2022-08-20T13:12:07.168Z,1.25
2022-08-20T13:14:34.299Z,1.00
2022-08-20T13:17:01.471Z,1.10
2022-08-20T13:19:28.561Z,1.20
2022-08-20T13:21:55.313Z,0.80
2022-08-20T13:24:21.768Z,0.93
2022-08-20T13:26:48.638Z,1.10
2022-08-20T13:29:15.660Z,1.25
2022-08-20T13:31:42.160Z,1.20
2022-08-20T13:34:08.690Z,1.50
2022-08-20T13:36:35.414Z,1.20
2022-08-20T13:39:02.315Z,1.10
2022-08-20T13:41:28.809Z,1.02
2022-08-20T13:43:55.148Z,1.10
2022-08-20T13:46:21.483Z,0.93
2022-08-20T13:48:47.877Z,0.82
2022-08-20T13:51:14.286Z,0.82
2022-08-20T13:53:45.481Z,1.17
2022-08-20T13:56:13.166Z,1.40
2022-08-20T13:58:39.585Z,0.90
2022-08-20T14:01:06.042Z,1.10
2022-08-20T14:03:34.763Z,1.05
2022-08-20T14:06:01.945Z,0.85
2022-08-20T14:08:28.361Z,0.90
2022-08-20T14:10:54.768Z,1.00
2022-08-20T14:13:22.663Z,0.90
2022-08-20T14:15:49.287Z,1.00
2022-08-20T14:18:16.137Z,1.13
2022-08-20T14:20:42.770Z,0.75
2022-08-20T14:23:11.798Z,1.02
2022-08-20T14:25:38.211Z,1.05
2022-08-20T14:28:15.044Z,1.23
2022-08-20T14:30:45.439Z,1.05
2022-08-20T14:33:13.713Z,0.80
2022-08-20T14:35:40.237Z,1.77
2022-08-20T14:38:06.931Z,1.00
2022-08-20T14:40:34.944Z,0.80
2022-08-20T14:43:01.328Z,0.70
2022-08-20T14:45:27.791Z,0.88
2022-08-20T14:47:55.442Z,0.80
2022-08-20T14:50:26.358Z,0.90
2022-08-20T14:52:53.355Z,1.65
2022-08-20T14:55:21.189Z,1.23
2022-08-20T14:57:47.695Z,0.98
2022-08-20T15:00:17.866Z,0.85
2022-08-20T15:02:44.633Z,0.73
2022-08-20T15:05:11.267Z,1.55
2022-08-20T15:07:39.721Z,0.80
2022-08-20T15:10:11.272Z,1.00
2022-08-20T15:12:37.703Z,1.10
2022-08-20T15:15:15.490Z,0.90
2022-08-20T15:17:47.360Z,0.90
2022-08-20T15:20:20.052Z,0.90
2022-08-20T15:22:46.918Z,1.15
2022-08-20T15:25:14.296Z,1.40
2022-08-20T15:27:40.937Z,0.90
2022-08-20T15:30:12.013Z,0.90
2022-08-20T15:32:38.600Z,0.73
2022-08-20T15:35:05.261Z,0.95
2022-08-20T15:37:32.004Z,1.02
2022-08-20T15:40:02.130Z,1.13
2022-08-20T15:42:28.674Z,1.27
2022-08-20T15:44:55.005Z,0.85
2022-08-20T15:47:23.868Z,0.88
2022-08-20T15:49:52.369Z,0.80
2022-08-20T15:52:18.937Z,0.60
2022-08-20T15:54:46.688Z,1.10
2022-08-20T15:57:30.456Z,1.73
2022-08-20T16:00:02.497Z,1.17
2022-08-20T16:02:52.261Z,1.13
2022-08-20T16:05:50.906Z,0.93
2022-08-20T16:08:35.825Z,0.88
2022-08-20T16:11:24.360Z,1.10
2022-08-20T16:13:54.101Z,1.00
2022-08-20T16:16:31.468Z,0.90
2022-08-20T16:18:58.188Z,1.15
2022-08-20T16:21:32.560Z,1.38
2022-08-20T16:23:58.911Z,1.67
2022-08-20T16:26:34.400Z,1.35
2022-08-20T16:31:30.407Z,1.77
2022-08-20T16:34:33.981Z,0.98
2022-08-20T16:37:04.412Z,1.00
2022-08-20T16:39:35.789Z,1.23
2022-08-20T16:42:05.794Z,0.95
2022-08-20T16:44:38.410Z,1.17
2022-08-20T16:47:16.130Z,1.15
2022-08-20T16:49:47.734Z,1.00
2022-08-20T16:52:14.088Z,0.90
2022-08-20T16:54:42.716Z,1.48
2022-08-20T16:57:10.825Z,0.90
2022-08-20T16:59:57.910Z,1.42
2022-08-20T17:02:24.736Z,1.30
2022-08-20T17:04:58.577Z,0.93
2022-08-20T17:07:31.079Z,1.23
2022-08-20T17:10:17.551Z,1.23
2022-08-20T17:12:43.882Z,1.05
2022-08-20T17:15:18.693Z,1.30
2022-08-20T17:17:45.028Z,1.48
2022-08-20T17:20:20.503Z,1.80
2022-08-20T17:22:52.119Z,1.30
2022-08-20T17:25:20.015Z,1.15
2022-08-20T17:27:46.727Z,1.42
2022-08-20T17:30:28.225Z,1.27
2022-08-20T17:32:59.065Z,1.25
2022-08-20T17:35:39.123Z,0.95
2022-08-20T17:38:05.547Z,1.00
2022-08-20T17:40:31.883Z,1.45
2022-08-20T17:43:01.566Z,1.48
2022-08-20T17:45:30.777Z,1.27
2022-08-20T17:47:59.570Z,1.00
2022-08-20T17:50:31.503Z,1.27
2022-08-20T17:53:04.472Z,1.20
2022-08-20T17:55:32.191Z,1.50
2022-08-20T17:58:00.658Z,1.55
2022-08-20T18:00:28.311Z,1.20
2022-08-20T18:03:14.919Z,0.60
2022-08-20T18:05:41.928Z,1.20
2022-08-20T18:08:08.602Z,1.90
2022-08-20T18:10:38.737Z,1.15
2022-08-20T18:13:13.434Z,1.25
2022-08-20T18:15:58.455Z,1.10
2022-08-20T18:18:24.855Z,1.27
2022-08-20T18:20:57.337Z,0.90
2022-08-20T18:23:47.563Z,1.00
2022-08-20T18:26:17.690Z,0.98
2022-08-20T18:28:52.668Z,1.00
2022-08-20T18:31:27.772Z,1.17
2022-08-20T18:33:54.299Z,1.25
2022-08-20T18:36:20.658Z,1.40
2022-08-20T18:39:16.220Z,1.27
2022-08-20T18:41:58.546Z,1.02
2022-08-20T18:44:54.148Z,0.93
2022-08-20T18:47:23.238Z,1.98
2022-08-20T18:50:16.125Z,1.83
2022-08-20T18:52:45.340Z,1.85
2022-08-20T18:55:15.080Z,1.73
2022-08-20T18:57:55.335Z,1.50
2022-08-20T19:00:22.285Z,1.55
2022-08-20T19:02:51.469Z,1.30
2022-08-20T19:05:23.460Z,1.15
2022-08-20T19:07:50.424Z,1.27
2022-08-20T19:10:28.021Z,0.98
2022-08-20T19:13:16.007Z,1.10
2022-08-20T19:15:44.740Z,1.15
2022-08-20T19:18:23.308Z,1.10
2022-08-20T19:21:00.594Z,1.65
2022-08-20T19:23:27.776Z,1.35
2022-08-20T19:26:03.089Z,1.40
2022-08-20T19:28:55.476Z,1.42
2022-08-20T19:31:27.061Z,2.00
2022-08-20T19:34:21.772Z,1.52
2022-08-20T19:36:56.233Z,1.55
2022-08-20T19:39:25.719Z,1.85
2022-08-20T19:42:01.227Z,1.42
2022-08-20T19:44:39.756Z,1.50
2022-08-20T19:47:10.809Z,1.65
2022-08-20T19:49:42.823Z,1.42
2022-08-20T19:52:09.687Z,1.50
2022-08-20T19:54:43.715Z,1.60
2022-08-20T19:57:10.649Z,1.40
2022-08-20T19:59:37.925Z,1.55
2022-08-20T20:02:20.234Z,1.73
2022-08-20T20:04:55.495Z,2.22
2022-08-20T20:07:36.754Z,1.58
2022-08-20T20:10:04.534Z,1.80
2022-08-20T20:12:32.448Z,1.40
2022-08-20T20:14:59.004Z,1.60
2022-08-20T20:17:28.860Z,1.75
2022-08-20T20:19:58.990Z,1.40
2022-08-20T20:22:28.088Z,1.48
2022-08-20T20:25:06.323Z,1.13
2022-08-20T20:27:34.052Z,1.30
2022-08-20T20:30:09.111Z,1.30
2022-08-20T20:32:38.282Z,1.88
2022-08-20T20:35:05.460Z,1.77
2022-08-20T20:37:49.502Z,1.75
2022-08-20T20:40:33.986Z,2.10
2022-08-20T20:43:06.249Z,1.45
2022-08-20T20:45:34.747Z,2.42
2022-08-20T20:48:10.205Z,1.27
2022-08-20T20:50:37.085Z,3.15
2022-08-20T20:53:03.476Z,1.92
2022-08-20T20:55:32.171Z,2.60
2022-08-20T20:57:58.811Z,2.25
2022-08-20T21:00:31.653Z,4.30
2022-08-20T21:02:58.133Z,4.13
2022-08-20T21:05:29.025Z,3.65
2022-08-20T21:07:55.863Z,5.43
2022-08-20T21:10:24.059Z,4.95
2022-08-20T21:12:53.102Z,4.45
2022-08-20T21:15:20.614Z,4.63
2022-08-20T21:17:47.185Z,3.80
2022-08-20T21:20:13.557Z,4.50
2022-08-20T21:22:40.071Z,3.90
2022-08-20T21:25:06.996Z,3.33
2022-08-20T21:27:34.260Z,3.20
2022-08-20T21:30:00.776Z,3.47
2022-08-20T21:32:27.136Z,3.15
2022-08-20T21:34:53.578Z,2.88
2022-08-20T21:37:19.941Z,3.42
2022-08-20T21:39:46.293Z,2.15
2022-08-20T21:42:19.902Z,2.58
2022-08-20T21:44:56.058Z,2.40
2022-08-20T21:47:22.787Z,2.17
2022-08-20T21:49:49.160Z,2.20
2022-08-20T21:52:15.642Z,2.88
2022-08-20T21:54:41.996Z,2.80
2022-08-20T21:57:12.629Z,2.08
2022-08-20T21:59:39.209Z,2.50
2022-08-20T22:02:06.428Z,1.60
2022-08-20T22:04:35.544Z,1.60
2022-08-20T22:07:03.488Z,2.42
2022-08-20T22:09:31.511Z,2.10
2022-08-20T22:12:00.899Z,2.28
2022-08-20T22:14:27.514Z,2.88
2022-08-20T22:16:53.839Z,1.50
2022-08-20T22:19:20.284Z,1.40
2022-08-20T22:21:46.643Z,1.55
2022-08-20T22:24:13.465Z,1.38
2022-08-20T22:26:40.755Z,2.45
2022-08-20T22:29:08.476Z,1.00
2022-08-20T22:31:36.986Z,1.50
2022-08-20T22:34:04.929Z,1.75
2022-08-20T22:36:31.771Z,2.30
2022-08-20T22:38:58.210Z,2.08
2022-08-20T22:41:24.602Z,1.85
2022-08-20T22:43:56.444Z,1.60
2022-08-20T22:46:24.864Z,1.70
2022-08-20T22:48:53.319Z,2.03
2022-08-20T22:51:28.222Z,2.25
2022-08-20T22:53:54.662Z,1.70
2022-08-20T22:56:21.962Z,2.92
2022-08-20T22:58:50.117Z,1.98
2022-08-20T23:01:16.990Z,1.52
2022-08-20T23:03:43.411Z,2.05
2022-08-20T23:06:10.146Z,1.88
2022-08-20T23:08:38.112Z,1.40
2022-08-20T23:11:04.678Z,1.77
2022-08-20T23:13:31.163Z,1.63
2022-08-20T23:15:57.659Z,2.13
2022-08-20T23:18:24.242Z,1.70
2022-08-20T23:20:55.591Z,2.30
2022-08-20T23:23:22.646Z,1.30
2022-08-20T23:25:49.051Z,1.40
2022-08-20T23:28:16.576Z,1.50
2022-08-20T23:30:42.932Z,1.63
2022-08-20T23:33:09.269Z,1.40
2022-08-20T23:35:38.099Z,1.73
2022-08-20T23:38:04.880Z,1.10
2022-08-20T23:40:31.614Z,1.65
2022-08-20T23:42:58.428Z,1.98
2022-08-20T23:45:25.583Z,1.52
2022-08-20T23:47:51.959Z,1.17
2022-08-20T23:50:19.504Z,1.13
2022-08-20T23:52:45.975Z,1.63
2022-08-20T23:55:12.450Z,0.68
2022-08-20T23:57:39.259Z,1.60
